Terminal Aerodrome Forecast
Issued by NWS

Current Version | Previous Version | Graphics & Text | Print | Product List | Glossary On
Versions: 1 2 3 4 5 6 7 8 9 10 11 12 13 14 15 16 17 18 19 20 21 22 23 24
000
FTUS41 KRLX 292100 AAA
TAFCKB
TAF AMD
KCKB 292100Z 2921/3018 00000KT P6SM SCT060
      TEMPO 2921/2922 2SM SHRA BKN030
     FM300800 00000KT 5SM BR SCT040
     FM301400 00000KT P6SM SCT035
     FM301700 26004KT P6SM SCT250=

USA.gov is the U.S. government's official web portal to all federal, state and local government web resources and services.